Search for airport 
image banner adimage banner adimage banner ad
image banner ad

1IA5 - Sch

Located in Nevada, United States

ICAO - 1IA5, IATA -

Data provided by Airmate  

General information

Coordinates: N42°1'3" W93°27'11"
Elevation is 995 feet MSL.
Magnetic variation is 04° East
View others Airports in Iowa

Operational data

Special qualification required
Current time UTC:
Current local time:
Weather at : KAMW - Ames Muni ( 14 km )
METAR: KAMW 292053Z AUTO 01009KT 10SM SCT044 SCT050 33/21 A3002 RMK AO2 SLP152 T03330211 51003
View NOTAMs / SUP AIP / TFR affecting this airport [VIEW]
Communications frequencies: [VIEW]

Runways:

Airport contact information

Address: Nevada United States

Satellite view of 1IA5